Nearby METAR Reports

 

RPLL - Ninoy Aquino Int, Philippines
Distance from station: S 15km
Updated: 12/11/2019 2:00am
Mostly cloudy
Mostly cloudy
 Wind from varies
Wind: varies 4 km/h
Temperature: 26°C
Dew Point: 22°C
Humidity: 79%
Barometer: 1011 hPa
Clouds: Mostly cloudy
Visibility: 10 km
Cloud details: Partly cloudy 701 m
Mostly cloudy 3048 m
2019/12/10 18:00 RPLL 101800Z VRB02KT 9999 SCT023 BKN100 26/22 Q1011 NOSIG RMK A2985
RPLC - Angeles/Pampanga, Philippines
Distance from station: NW 71km
Updated: 12/11/2019 2:00am
Mostly cloudy
Mostly cloudy
 Wind from N
Wind: N 4 km/h
Temperature: 24°C
Dew Point: 21°C
Humidity: 83%
Barometer: 1012 hPa
Clouds: Mostly cloudy
Visibility: 8 km
Cloud details: Few Clouds 610 m
Mostly cloudy 9144 m
2019/12/10 18:00 RPLC 101800Z 35002KT 8000 FEW020 BKN300 24/21 Q1012 NOSIG RMK A2988
 
RPLB - Olongapo/Subic, Philippines
Distance from station: WNW 78km
Updated: 12/11/2019 2:00am
Few Clouds
Few Clouds
 Wind from ENE
Wind: ENE 6 km/h
Temperature: 24°C
Dew Point: 21°C
Humidity: 83%
Barometer: 1012 hPa
Clouds: Few Clouds
Visibility: 10 km
Cloud details: Few Clouds 610 m
2019/12/10 18:00 RPLB 101800Z 06003KT 9999 FEW020 24/21 Q1012 NOSIG RMK A2988
RPMR - Romblon/Tablas I, Philippines
Distance from station: SSE 270km
Updated: 12/10/2019 5:00pm
NOT Current
Overcast
Overcast
 Wind from SW
Wind: SW 15 km/h
Temperature: 28°C
Heat Index: 31°C
Dew Point: 23°C
Humidity: 74%
Barometer: 1009 hPa
Clouds: Overcast
Visibility: 10 km
Cloud details: Few Clouds 549 m
Overcast 2438 m
2019/12/10 09:00 RPMR 100900Z 22008KT 9999 FEW018 OVC080 28/23 Q1009 NOSIG RMK A2983
 
RPLI - Laoag Intl(Ph-Ar, Philippines
Distance from station: N 394km
Updated: 12/11/2019 2:00am
Mostly cloudy
Mostly cloudy
 Wind from varies
Wind: varies 4 km/h
Temperature: 21°C
Dew Point: 20°C
Humidity: 94%
Clouds: Mostly cloudy
Visibility: 10 km
Cloud details: Few Clouds 549 m
Mostly cloudy 2743 m
2019/12/10 18:00 RPLI 101800Z VRB02KT 9999 FEW018 BKN090 21/20 Q102 NOSIG RMK A2988
RPVM - Mactan-Cebu, Philippines
Distance from station: SE 582km
Updated: 12/11/2019 2:00am
Partly cloudy
Partly cloudy
 Wind from NNW
Wind: NNW 13 km/h
Temperature: 26°C
Dew Point: 24°C
Humidity: 89%
Barometer: 1009 hPa
Clouds: Partly cloudy
Visibility: 10 km
Cloud details: Few Clouds 549 m
Partly cloudy 9144 m
2019/12/10 18:00 RPVM 101800Z 34007KT 9999 FEW018CB SCT300 26/24 Q1009 RMK A2980 CB NW
 
RPVP - Puerto Princesa, Philippines
Distance from station: SSW 598km
Updated: 12/11/2019 2:00am
Partly cloudy
Partly cloudy
 Wind from W
Wind: W 4 km/h
Temperature: 26°C
Dew Point: 24°C
Humidity: 89%
Barometer: 1009 hPa
Clouds: Partly cloudy
Visibility: 10 km
Cloud details: Few Clouds 579 m
Partly cloudy 7620 m
2019/12/10 18:00 RPVP 101800Z 27002KT 9999 FEW019 SCT250 26/24 Q1009 RMK A2980
RPVD - Dumaguete/Negros, Philippines
Distance from station: SSE 643km
Updated: 12/11/2019 2:00am
Overcast
Overcast
 Wind from NW
Wind: NW 7 km/h
Temperature: 27°C
Heat Index: 32°C
Dew Point: 26°C
Humidity: 94%
Barometer: 1008 hPa
Clouds: Overcast
Visibility: 10 km
Cloud details: Few Clouds 427 m
Partly cloudy 2134 m
Overcast 6706 m
2019/12/10 18:00 RPVD 101800Z 32004KT 9999 FEW014CB SCT070 OVC220 27/26 Q1008 RMK A2977 CB S
 
RPMZ - Zamboanga (civ/A, Philippines
Distance from station: S 868km
Updated: 12/11/2019 2:00am
Overcast
Overcast
 Wind from E
Wind: E 6 km/h
Temperature: 26°C
Dew Point: 23°C
Humidity: 84%
Barometer: 1008 hPa
Clouds: Overcast
Visibility: 10 km
Cloud details: Few Clouds 488 m
Few Clouds 518 m
Overcast 2743 m
2019/12/10 18:00 RPMZ 101800Z 09003KT 9999 FEW016CB FEW017 OVC090 26/23 Q1008 RMK A2977 CB SE
RPMD - Davao/Francisco, Philippines
Distance from station: SSE 980km
Updated: 12/11/2019 2:00am
Mostly cloudy
Mostly cloudy
 Wind from NNE
Wind: NNE 4 km/h
Temperature: 25°C
Dew Point: 25°C
Humidity: 100%
Barometer: 1009 hPa
Clouds: Mostly cloudy
Visibility: 10 km
Cloud details: Partly cloudy 488 m
Mostly cloudy 2743 m
Mostly cloudy 8839 m
2019/12/10 18:00 RPMD 101800Z 02002KT 9999 SCT016 BKN090 BKN290 25/25 Q1009 RMK A2980